sensor_id;sensor_type;location;lat;lon;timestamp;temperature;humidity
66835;HTU21D;53743;51.100;5.874;2022-09-16T00:00:48;14.82;88.81
66835;HTU21D;53743;51.100;5.874;2022-09-16T00:01:50;14.83;88.86
66835;HTU21D;53743;51.100;5.874;2022-09-16T00:02:52;14.84;88.91
66835;HTU21D;53743;51.100;5.874;2022-09-16T00:03:55;14.84;88.84
66835;HTU21D;53743;51.100;5.874;2022-09-16T00:04:56;14.85;88.70
66835;HTU21D;53743;51.100;5.874;2022-09-16T00:05:57;14.86;88.64
66835;HTU21D;53743;51.100;5.874;2022-09-16T00:06:57;14.85;88.73
66835;HTU21D;53743;51.100;5.874;2022-09-16T00:07:58;14.85;88.70
66835;HTU21D;53743;51.100;5.874;2022-09-16T00:08:59;14.87;88.80
66835;HTU21D;53743;51.100;5.874;2022-09-16T00:10:01;14.87;88.77
66835;HTU21D;53743;51.100;5.874;2022-09-16T00:11:02;14.89;88.83
66835;HTU21D;53743;51.100;5.874;2022-09-16T00:12:05;14.89;88.90
66835;HTU21D;53743;51.100;5.874;2022-09-16T00:13:06;14.89;89.14
66835;HTU21D;53743;51.100;5.874;2022-09-16T00:14:06;14.88;89.09
66835;HTU21D;53743;51.100;5.874;2022-09-16T00:15:08;14.88;89.07
66835;HTU21D;53743;51.100;5.874;2022-09-16T00:16:30;14.89;89.25
66835;HTU21D;53743;51.100;5.874;2022-09-16T00:17:31;14.89;89.13
66835;HTU21D;53743;51.100;5.874;2022-09-16T00:18:32;14.89;89.17
66835;HTU21D;53743;51.100;5.874;2022-09-16T00:19:32;14.91;89.18
66835;HTU21D;53743;51.100;5.874;2022-09-16T00:20:33;14.89;89.18
66835;HTU21D;53743;51.100;5.874;2022-09-16T00:21:34;14.88;89.29
66835;HTU21D;53743;51.100;5.874;2022-09-16T00:22:34;14.92;89.21
66835;HTU21D;53743;51.100;5.874;2022-09-16T00:23:36;14.91;89.12
66835;HTU21D;53743;51.100;5.874;2022-09-16T00:24:37;14.92;89.23
66835;HTU21D;53743;51.100;5.874;2022-09-16T00:25:37;14.92;89.25
66835;HTU21D;53743;51.100;5.874;2022-09-16T00:26:38;14.93;89.04
66835;HTU21D;53743;51.100;5.874;2022-09-16T00:27:39;14.92;89.15
66835;HTU21D;53743;51.100;5.874;2022-09-16T00:28:39;14.89;89.12
66835;HTU21D;53743;51.100;5.874;2022-09-16T00:29:40;14.87;89.10
66835;HTU21D;53743;51.100;5.874;2022-09-16T00:30:41;14.82;89.09
66835;HTU21D;53743;51.100;5.874;2022-09-16T00:31:41;14.82;88.99
66835;HTU21D;53743;51.100;5.874;2022-09-16T00:32:43;14.79;89.09
66835;HTU21D;53743;51.100;5.874;2022-09-16T00:33:44;14.77;89.08
66835;HTU21D;53743;51.100;5.874;2022-09-16T00:34:44;14.72;89.21
66835;HTU21D;53743;51.100;5.874;2022-09-16T00:35:46;14.70;89.12
66835;HTU21D;53743;51.100;5.874;2022-09-16T00:36:47;14.69;89.20
66835;HTU21D;53743;51.100;5.874;2022-09-16T00:37:48;14.68;89.20
66835;HTU21D;53743;51.100;5.874;2022-09-16T00:38:51;14.67;89.34
66835;HTU21D;53743;51.100;5.874;2022-09-16T00:39:52;14.66;89.33
66835;HTU21D;53743;51.100;5.874;2022-09-16T00:40:53;14.65;89.44
66835;HTU21D;53743;51.100;5.874;2022-09-16T00:41:54;14.65;89.48
66835;HTU21D;53743;51.100;5.874;2022-09-16T00:42:55;14.65;89.53
66835;HTU21D;53743;51.100;5.874;2022-09-16T00:43:58;14.65;89.50
66835;HTU21D;53743;51.100;5.874;2022-09-16T00:45:25;14.64;89.52
66835;HTU21D;53743;51.100;5.874;2022-09-16T00:46:37;14.63;89.60
66835;HTU21D;53743;51.100;5.874;2022-09-16T00:47:49;14.63;89.53
66835;HTU21D;53743;51.100;5.874;2022-09-16T00:48:53;14.62;89.37
66835;HTU21D;53743;51.100;5.874;2022-09-16T00:50:17;14.59;89.43
66835;HTU21D;53743;51.100;5.874;2022-09-16T00:51:22;14.58;89.42
66835;HTU21D;53743;51.100;5.874;2022-09-16T00:52:26;14.56;89.39
66835;HTU21D;53743;51.100;5.874;2022-09-16T00:53:34;14.55;89.41
66835;HTU21D;53743;51.100;5.874;2022-09-16T00:54:40;14.52;89.25
66835;HTU21D;53743;51.100;5.874;2022-09-16T00:55:44;14.51;89.28
66835;HTU21D;53743;51.100;5.874;2022-09-16T00:56:49;14.49;89.19
66835;HTU21D;53743;51.100;5.874;2022-09-16T00:57:57;14.50;89.18
66835;HTU21D;53743;51.100;5.874;2022-09-16T00:59:20;14.48;89.25
66835;HTU21D;53743;51.100;5.874;2022-09-16T01:00:48;14.50;89.37
66835;HTU21D;53743;51.100;5.874;2022-09-16T01:01:51;14.51;89.43
66835;HTU21D;53743;51.100;5.874;2022-09-16T01:02:54;14.51;89.41
66835;HTU21D;53743;51.100;5.874;2022-09-16T01:04:02;14.51;89.50
66835;HTU21D;53743;51.100;5.874;2022-09-16T01:05:14;14.55;89.48
66835;HTU21D;53743;51.100;5.874;2022-09-16T01:06:18;14.55;89.48
66835;HTU21D;53743;51.100;5.874;2022-09-16T01:07:28;14.55;89.63
66835;HTU21D;53743;51.100;5.874;2022-09-16T01:08:33;14.58;89.60
66835;HTU21D;53743;51.100;5.874;2022-09-16T01:09:37;14.58;89.48
66835;HTU21D;53743;51.100;5.874;2022-09-16T01:10:41;14.58;89.40
66835;HTU21D;53743;51.100;5.874;2022-09-16T01:11:42;14.58;89.29
66835;HTU21D;53743;51.100;5.874;2022-09-16T01:12:48;14.57;89.15
66835;HTU21D;53743;51.100;5.874;2022-09-16T01:13:52;14.57;89.35
66835;HTU21D;53743;51.100;5.874;2022-09-16T01:14:53;14.58;89.31
66835;HTU21D;53743;51.100;5.874;2022-09-16T01:18:08;14.56;89.37
66835;HTU21D;53743;51.100;5.874;2022-09-16T01:21:08;14.52;89.50
66835;HTU21D;53743;51.100;5.874;2022-09-16T01:24:08;14.48;89.38
66835;HTU21D;53743;51.100;5.874;2022-09-16T01:30:55;14.37;89.24
66835;HTU21D;53743;51.100;5.874;2022-09-16T01:32:27;14.37;89.31
66835;HTU21D;53743;51.100;5.874;2022-09-16T01:40:39;14.20;89.44
66835;HTU21D;53743;51.100;5.874;2022-09-16T01:46:08;14.10;89.38
66835;HTU21D;53743;51.100;5.874;2022-09-16T01:47:29;14.07;89.58
66835;HTU21D;53743;51.100;5.874;2022-09-16T01:48:55;14.04;89.59
66835;HTU21D;53743;51.100;5.874;2022-09-16T01:50:29;14.01;89.64
66835;HTU21D;53743;51.100;5.874;2022-09-16T01:56:56;13.96;89.34
66835;HTU21D;53743;51.100;5.874;2022-09-16T02:01:07;13.93;89.42
66835;HTU21D;53743;51.100;5.874;2022-09-16T02:02:37;13.92;89.49
66835;HTU21D;53743;51.100;5.874;2022-09-16T02:03:45;13.92;89.56
66835;HTU21D;53743;51.100;5.874;2022-09-16T02:04:54;13.92;89.55
66835;HTU21D;53743;51.100;5.874;2022-09-16T02:06:09;13.96;89.37
66835;HTU21D;53743;51.100;5.874;2022-09-16T02:07:22;13.95;89.21
66835;HTU21D;53743;51.100;5.874;2022-09-16T02:08:42;13.96;89.17
66835;HTU21D;53743;51.100;5.874;2022-09-16T02:09:53;13.92;88.96
66835;HTU21D;53743;51.100;5.874;2022-09-16T02:11:00;13.89;89.25
66835;HTU21D;53743;51.100;5.874;2022-09-16T02:12:08;13.91;89.41
66835;HTU21D;53743;51.100;5.874;2022-09-16T02:13:22;13.90;89.31
66835;HTU21D;53743;51.100;5.874;2022-09-16T02:14:41;13.91;89.23
66835;HTU21D;53743;51.100;5.874;2022-09-16T02:15:48;13.91;89.21
66835;HTU21D;53743;51.100;5.874;2022-09-16T02:17:08;13.94;89.06
66835;HTU21D;53743;51.100;5.874;2022-09-16T02:18:24;13.93;88.92
66835;HTU21D;53743;51.100;5.874;2022-09-16T02:19:41;13.93;88.91
66835;HTU21D;53743;51.100;5.874;2022-09-16T02:20:46;13.95;88.83
66835;HTU21D;53743;51.100;5.874;2022-09-16T02:21:53;13.94;88.68
66835;HTU21D;53743;51.100;5.874;2022-09-16T02:23:02;13.91;88.93
66835;HTU21D;53743;51.100;5.874;2022-09-16T02:24:15;13.88;88.95
66835;HTU21D;53743;51.100;5.874;2022-09-16T02:25:21;13.86;89.09
66835;HTU21D;53743;51.100;5.874;2022-09-16T02:26:36;13.82;89.25
66835;HTU21D;53743;51.100;5.874;2022-09-16T02:27:44;13.81;89.18
66835;HTU21D;53743;51.100;5.874;2022-09-16T02:28:52;13.80;89.14
66835;HTU21D;53743;51.100;5.874;2022-09-16T02:30:06;13.76;89.11
66835;HTU21D;53743;51.100;5.874;2022-09-16T02:31:12;13.74;89.12
66835;HTU21D;53743;51.100;5.874;2022-09-16T02:32:17;13.74;88.96
66835;HTU21D;53743;51.100;5.874;2022-09-16T02:33:28;13.68;89.05
66835;HTU21D;53743;51.100;5.874;2022-09-16T02:34:42;13.66;89.15
66835;HTU21D;53743;51.100;5.874;2022-09-16T02:35:49;13.60;89.21
66835;HTU21D;53743;51.100;5.874;2022-09-16T02:37:00;13.60;89.30
66835;HTU21D;53743;51.100;5.874;2022-09-16T02:38:24;13.58;89.30
66835;HTU21D;53743;51.100;5.874;2022-09-16T02:39:35;13.55;89.22
66835;HTU21D;53743;51.100;5.874;2022-09-16T02:40:59;13.51;89.38
66835;HTU21D;53743;51.100;5.874;2022-09-16T02:42:01;13.51;89.32
66835;HTU21D;53743;51.100;5.874;2022-09-16T02:43:02;13.46;89.39
66835;HTU21D;53743;51.100;5.874;2022-09-16T02:44:04;13.48;89.35
66835;HTU21D;53743;51.100;5.874;2022-09-16T02:45:06;13.45;89.41
66835;HTU21D;53743;51.100;5.874;2022-09-16T02:46:33;13.46;89.28
66835;HTU21D;53743;51.100;5.874;2022-09-16T02:47:58;13.43;89.36
66835;HTU21D;53743;51.100;5.874;2022-09-16T02:49:21;13.44;89.31
66835;HTU21D;53743;51.100;5.874;2022-09-16T02:50:38;13.38;89.41
66835;HTU21D;53743;51.100;5.874;2022-09-16T02:52:13;13.33;89.55
66835;HTU21D;53743;51.100;5.874;2022-09-16T02:55:03;13.30;89.62
66835;HTU21D;53743;51.100;5.874;2022-09-16T02:56:35;13.27;89.69
66835;HTU21D;53743;51.100;5.874;2022-09-16T02:57:38;13.25;89.79
66835;HTU21D;53743;51.100;5.874;2022-09-16T02:58:40;13.23;90.10
66835;HTU21D;53743;51.100;5.874;2022-09-16T02:59:42;13.22;90.02
66835;HTU21D;53743;51.100;5.874;2022-09-16T03:00:51;13.19;90.11
66835;HTU21D;53743;51.100;5.874;2022-09-16T03:01:54;13.18;90.11
66835;HTU21D;53743;51.100;5.874;2022-09-16T03:02:55;13.16;90.12
66835;HTU21D;53743;51.100;5.874;2022-09-16T03:03:56;13.14;90.54
66835;HTU21D;53743;51.100;5.874;2022-09-16T03:04:57;13.14;90.37
66835;HTU21D;53743;51.100;5.874;2022-09-16T03:06:30;13.09;90.59
66835;HTU21D;53743;51.100;5.874;2022-09-16T03:07:38;13.12;90.44
66835;HTU21D;53743;51.100;5.874;2022-09-16T03:08:42;13.11;90.90
66835;HTU21D;53743;51.100;5.874;2022-09-16T03:09:46;13.11;90.68
66835;HTU21D;53743;51.100;5.874;2022-09-16T03:10:51;13.14;90.73
66835;HTU21D;53743;51.100;5.874;2022-09-16T03:13:16;13.19;90.79
66835;HTU21D;53743;51.100;5.874;2022-09-16T03:16:11;13.20;90.77
66835;HTU21D;53743;51.100;5.874;2022-09-16T03:17:37;13.25;90.55
66835;HTU21D;53743;51.100;5.874;2022-09-16T03:20:50;13.31;90.58
66835;HTU21D;53743;51.100;5.874;2022-09-16T03:27:07;13.56;89.99
66835;HTU21D;53743;51.100;5.874;2022-09-16T03:29:54;13.62;89.68
66835;HTU21D;53743;51.100;5.874;2022-09-16T03:31:09;13.63;89.60
66835;HTU21D;53743;51.100;5.874;2022-09-16T03:32:24;13.63;89.82
66835;HTU21D;53743;51.100;5.874;2022-09-16T03:33:52;13.66;89.89
66835;HTU21D;53743;51.100;5.874;2022-09-16T03:36:46;13.69;89.90
66835;HTU21D;53743;51.100;5.874;2022-09-16T03:37:53;13.75;89.59
66835;HTU21D;53743;51.100;5.874;2022-09-16T03:38:59;13.74;89.52
66835;HTU21D;53743;51.100;5.874;2022-09-16T03:40:10;13.76;89.56
66835;HTU21D;53743;51.100;5.874;2022-09-16T03:41:15;13.77;89.42
66835;HTU21D;53743;51.100;5.874;2022-09-16T03:42:16;13.80;89.31
66835;HTU21D;53743;51.100;5.874;2022-09-16T03:43:17;13.85;88.97
66835;HTU21D;53743;51.100;5.874;2022-09-16T03:44:18;13.84;88.92
66835;HTU21D;53743;51.100;5.874;2022-09-16T03:45:20;13.85;88.09
66835;HTU21D;53743;51.100;5.874;2022-09-16T03:46:22;13.88;88.70
66835;HTU21D;53743;51.100;5.874;2022-09-16T03:47:23;13.89;88.47
66835;HTU21D;53743;51.100;5.874;2022-09-16T03:48:23;13.88;88.64
66835;HTU21D;53743;51.100;5.874;2022-09-16T03:49:24;13.88;88.67
66835;HTU21D;53743;51.100;5.874;2022-09-16T03:50:25;13.90;88.64
66835;HTU21D;53743;51.100;5.874;2022-09-16T03:51:26;13.93;88.10
66835;HTU21D;53743;51.100;5.874;2022-09-16T03:52:27;13.94;88.31
66835;HTU21D;53743;51.100;5.874;2022-09-16T03:53:27;13.94;88.15
66835;HTU21D;53743;51.100;5.874;2022-09-16T03:54:28;13.99;87.80
66835;HTU21D;53743;51.100;5.874;2022-09-16T03:55:28;13.96;87.76
66835;HTU21D;53743;51.100;5.874;2022-09-16T03:56:29;13.95;87.82
66835;HTU21D;53743;51.100;5.874;2022-09-16T03:57:30;13.96;87.77
66835;HTU21D;53743;51.100;5.874;2022-09-16T03:58:31;13.98;87.41
66835;HTU21D;53743;51.100;5.874;2022-09-16T03:59:32;13.99;87.41
66835;HTU21D;53743;51.100;5.874;2022-09-16T04:00:32;13.97;87.54
66835;HTU21D;53743;51.100;5.874;2022-09-16T04:01:33;13.97;87.53
66835;HTU21D;53743;51.100;5.874;2022-09-16T04:02:34;14.00;87.30
66835;HTU21D;53743;51.100;5.874;2022-09-16T04:03:35;14.01;87.06
66835;HTU21D;53743;51.100;5.874;2022-09-16T04:04:36;14.00;87.06
66835;HTU21D;53743;51.100;5.874;2022-09-16T04:05:37;13.99;87.19
66835;HTU21D;53743;51.100;5.874;2022-09-16T04:06:38;13.97;87.35
66835;HTU21D;53743;51.100;5.874;2022-09-16T04:07:39;13.99;87.06
66835;HTU21D;53743;51.100;5.874;2022-09-16T04:08:40;14.03;86.80
66835;HTU21D;53743;51.100;5.874;2022-09-16T04:09:43;14.01;86.58
66835;HTU21D;53743;51.100;5.874;2022-09-16T04:11:02;14.03;86.66
66835;HTU21D;53743;51.100;5.874;2022-09-16T04:12:07;13.95;86.28
66835;HTU21D;53743;51.100;5.874;2022-09-16T04:13:08;13.94;86.59
66835;HTU21D;53743;51.100;5.874;2022-09-16T04:14:09;13.96;86.63
66835;HTU21D;53743;51.100;5.874;2022-09-16T04:15:11;13.98;86.49
66835;HTU21D;53743;51.100;5.874;2022-09-16T04:16:18;13.92;86.44
66835;HTU21D;53743;51.100;5.874;2022-09-16T04:17:20;13.89;86.67
66835;HTU21D;53743;51.100;5.874;2022-09-16T04:18:21;13.88;86.62
66835;HTU21D;53743;51.100;5.874;2022-09-16T04:19:22;13.85;86.56
66835;HTU21D;53743;51.100;5.874;2022-09-16T04:20:23;13.81;86.74
66835;HTU21D;53743;51.100;5.874;2022-09-16T04:21:24;13.80;86.90
66835;HTU21D;53743;51.100;5.874;2022-09-16T04:22:29;13.77;86.71
66835;HTU21D;53743;51.100;5.874;2022-09-16T04:23:30;13.73;86.99
66835;HTU21D;53743;51.100;5.874;2022-09-16T04:24:31;13.70;87.10
66835;HTU21D;53743;51.100;5.874;2022-09-16T04:25:32;13.65;87.03
66835;HTU21D;53743;51.100;5.874;2022-09-16T04:26:33;13.69;87.02
66835;HTU21D;53743;51.100;5.874;2022-09-16T04:27:34;13.68;86.86
66835;HTU21D;53743;51.100;5.874;2022-09-16T04:28:34;13.69;87.29
66835;HTU21D;53743;51.100;5.874;2022-09-16T04:29:35;13.68;87.29
66835;HTU21D;53743;51.100;5.874;2022-09-16T04:30:36;13.71;87.18
66835;HTU21D;53743;51.100;5.874;2022-09-16T04:31:37;13.75;86.84
66835;HTU21D;53743;51.100;5.874;2022-09-16T04:32:38;13.71;86.55
66835;HTU21D;53743;51.100;5.874;2022-09-16T04:33:39;13.74;87.03
66835;HTU21D;53743;51.100;5.874;2022-09-16T04:34:41;13.77;87.10
66835;HTU21D;53743;51.100;5.874;2022-09-16T04:35:43;13.77;86.93
66835;HTU21D;53743;51.100;5.874;2022-09-16T04:36:43;13.79;86.74
66835;HTU21D;53743;51.100;5.874;2022-09-16T04:37:44;13.79;86.56
66835;HTU21D;53743;51.100;5.874;2022-09-16T04:38:47;13.80;86.59
66835;HTU21D;53743;51.100;5.874;2022-09-16T04:39:48;13.81;86.51
66835;HTU21D;53743;51.100;5.874;2022-09-16T04:40:48;13.82;86.59
66835;HTU21D;53743;51.100;5.874;2022-09-16T04:41:49;13.82;86.63
66835;HTU21D;53743;51.100;5.874;2022-09-16T04:42:50;13.81;86.57
66835;HTU21D;53743;51.100;5.874;2022-09-16T04:43:54;13.78;86.72
66835;HTU21D;53743;51.100;5.874;2022-09-16T04:44:56;13.81;86.77
66835;HTU21D;53743;51.100;5.874;2022-09-16T04:45:57;13.82;86.74
66835;HTU21D;53743;51.100;5.874;2022-09-16T04:46:57;13.85;86.56
66835;HTU21D;53743;51.100;5.874;2022-09-16T04:47:58;13.86;86.19
66835;HTU21D;53743;51.100;5.874;2022-09-16T04:48:59;13.82;86.30
66835;HTU21D;53743;51.100;5.874;2022-09-16T04:50:00;13.80;86.09
66835;HTU21D;53743;51.100;5.874;2022-09-16T04:51:06;13.85;86.13
66835;HTU21D;53743;51.100;5.874;2022-09-16T04:52:10;13.88;85.79
66835;HTU21D;53743;51.100;5.874;2022-09-16T04:53:10;13.86;85.95
66835;HTU21D;53743;51.100;5.874;2022-09-16T04:54:11;13.88;85.99
66835;HTU21D;53743;51.100;5.874;2022-09-16T04:55:11;13.84;85.89
66835;HTU21D;53743;51.100;5.874;2022-09-16T04:56:15;13.83;86.05
66835;HTU21D;53743;51.100;5.874;2022-09-16T04:57:18;13.84;86.22
66835;HTU21D;53743;51.100;5.874;2022-09-16T04:58:18;13.86;86.03
66835;HTU21D;53743;51.100;5.874;2022-09-16T04:59:19;13.84;86.13
66835;HTU21D;53743;51.100;5.874;2022-09-16T05:00:20;13.85;85.91
66835;HTU21D;53743;51.100;5.874;2022-09-16T05:01:24;13.83;86.20
66835;HTU21D;53743;51.100;5.874;2022-09-16T05:02:26;13.82;86.23
66835;HTU21D;53743;51.100;5.874;2022-09-16T05:03:28;13.81;86.37
66835;HTU21D;53743;51.100;5.874;2022-09-16T05:04:29;13.80;86.51
66835;HTU21D;53743;51.100;5.874;2022-09-16T05:05:29;13.81;86.22
66835;HTU21D;53743;51.100;5.874;2022-09-16T05:06:36;13.78;86.41
66835;HTU21D;53743;51.100;5.874;2022-09-16T05:07:39;13.76;86.32
66835;HTU21D;53743;51.100;5.874;2022-09-16T05:08:41;13.76;86.44
66835;HTU21D;53743;51.100;5.874;2022-09-16T05:09:42;13.75;86.54
66835;HTU21D;53743;51.100;5.874;2022-09-16T05:10:42;13.71;86.67
66835;HTU21D;53743;51.100;5.874;2022-09-16T05:11:43;13.70;86.95
66835;HTU21D;53743;51.100;5.874;2022-09-16T05:12:44;13.73;86.83
66835;HTU21D;53743;51.100;5.874;2022-09-16T05:13:50;13.73;86.96
66835;HTU21D;53743;51.100;5.874;2022-09-16T05:14:51;13.71;86.83
66835;HTU21D;53743;51.100;5.874;2022-09-16T05:15:52;13.75;86.99
66835;HTU21D;53743;51.100;5.874;2022-09-16T05:16:53;13.77;86.80
66835;HTU21D;53743;51.100;5.874;2022-09-16T05:17:53;13.79;86.56
66835;HTU21D;53743;51.100;5.874;2022-09-16T05:18:56;13.76;86.61
66835;HTU21D;53743;51.100;5.874;2022-09-16T05:19:58;13.77;86.71
66835;HTU21D;53743;51.100;5.874;2022-09-16T05:21:01;13.84;86.40
66835;HTU21D;53743;51.100;5.874;2022-09-16T05:22:04;13.83;86.41
66835;HTU21D;53743;51.100;5.874;2022-09-16T05:23:06;13.83;86.54
66835;HTU21D;53743;51.100;5.874;2022-09-16T05:24:09;13.90;86.12
66835;HTU21D;53743;51.100;5.874;2022-09-16T05:25:11;13.88;86.04
66835;HTU21D;53743;51.100;5.874;2022-09-16T05:26:18;13.89;86.00
66835;HTU21D;53743;51.100;5.874;2022-09-16T05:27:20;13.88;86.18
66835;HTU21D;53743;51.100;5.874;2022-09-16T05:28:21;13.93;85.72
66835;HTU21D;53743;51.100;5.874;2022-09-16T05:29:22;13.96;85.45
66835;HTU21D;53743;51.100;5.874;2022-09-16T05:30:22;13.92;85.47
66835;HTU21D;53743;51.100;5.874;2022-09-16T05:31:26;13.89;85.48
66835;HTU21D;53743;51.100;5.874;2022-09-16T05:32:27;13.91;85.71
66835;HTU21D;53743;51.100;5.874;2022-09-16T05:33:28;13.91;85.63
66835;HTU21D;53743;51.100;5.874;2022-09-16T05:34:29;13.90;85.84
66835;HTU21D;53743;51.100;5.874;2022-09-16T05:35:29;13.92;85.71
66835;HTU21D;53743;51.100;5.874;2022-09-16T05:36:32;13.92;85.89
66835;HTU21D;53743;51.100;5.874;2022-09-16T05:37:35;13.97;85.59
66835;HTU21D;53743;51.100;5.874;2022-09-16T05:38:36;13.95;85.58
66835;HTU21D;53743;51.100;5.874;2022-09-16T05:39:37;13.95;85.58
66835;HTU21D;53743;51.100;5.874;2022-09-16T05:40:38;13.94;85.45
66835;HTU21D;53743;51.100;5.874;2022-09-16T05:41:39;13.94;85.74
66835;HTU21D;53743;51.100;5.874;2022-09-16T05:42:39;13.98;85.32
66835;HTU21D;53743;51.100;5.874;2022-09-16T05:43:40;13.98;85.53
66835;HTU21D;53743;51.100;5.874;2022-09-16T05:44:41;14.07;85.03
66835;HTU21D;53743;51.100;5.874;2022-09-16T05:45:42;14.05;85.01
66835;HTU21D;53743;51.100;5.874;2022-09-16T05:46:42;14.03;85.24
66835;HTU21D;53743;51.100;5.874;2022-09-16T05:47:47;14.05;85.29
66835;HTU21D;53743;51.100;5.874;2022-09-16T05:48:51;14.07;85.15
66835;HTU21D;53743;51.100;5.874;2022-09-16T05:49:53;14.07;85.20
66835;HTU21D;53743;51.100;5.874;2022-09-16T05:50:56;14.09;85.16
66835;HTU21D;53743;51.100;5.874;2022-09-16T05:52:00;14.10;85.29
66835;HTU21D;53743;51.100;5.874;2022-09-16T05:53:01;14.11;85.39
66835;HTU21D;53743;51.100;5.874;2022-09-16T05:54:03;14.14;85.13
66835;HTU21D;53743;51.100;5.874;2022-09-16T05:55:04;14.13;85.45
66835;HTU21D;53743;51.100;5.874;2022-09-16T05:56:09;14.19;85.29
66835;HTU21D;53743;51.100;5.874;2022-09-16T05:57:11;14.21;85.13
66835;HTU21D;53743;51.100;5.874;2022-09-16T05:58:13;14.22;85.07
66835;HTU21D;53743;51.100;5.874;2022-09-16T05:59:15;14.26;84.97
66835;HTU21D;53743;51.100;5.874;2022-09-16T06:00:16;14.25;85.25
66835;HTU21D;53743;51.100;5.874;2022-09-16T06:01:20;14.33;85.79
66835;HTU21D;53743;51.100;5.874;2022-09-16T06:02:22;14.56;85.77
66835;HTU21D;53743;51.100;5.874;2022-09-16T06:03:23;14.83;84.45
66835;HTU21D;53743;51.100;5.874;2022-09-16T06:04:24;14.98;82.76
66835;HTU21D;53743;51.100;5.874;2022-09-16T06:05:25;14.99;82.69
66835;HTU21D;53743;51.100;5.874;2022-09-16T06:06:34;14.95;82.33
66835;HTU21D;53743;51.100;5.874;2022-09-16T06:07:36;14.93;82.51
66835;HTU21D;53743;51.100;5.874;2022-09-16T06:08:38;14.88;82.46
66835;HTU21D;53743;51.100;5.874;2022-09-16T06:09:40;14.86;82.58
66835;HTU21D;53743;51.100;5.874;2022-09-16T06:10:41;14.83;82.88
66835;HTU21D;53743;51.100;5.874;2022-09-16T06:11:44;14.81;83.04
66835;HTU21D;53743;51.100;5.874;2022-09-16T06:12:46;14.80;83.16
66835;HTU21D;53743;51.100;5.874;2022-09-16T06:13:46;14.77;83.49
66835;HTU21D;53743;51.100;5.874;2022-09-16T06:14:52;14.77;83.38
66835;HTU21D;53743;51.100;5.874;2022-09-16T06:15:53;14.71;83.58
66835;HTU21D;53743;51.100;5.874;2022-09-16T06:16:54;14.69;83.81
66835;HTU21D;53743;51.100;5.874;2022-09-16T06:17:55;14.66;84.08
66835;HTU21D;53743;51.100;5.874;2022-09-16T06:18:56;14.72;84.00
66835;HTU21D;53743;51.100;5.874;2022-09-16T06:19:56;14.74;83.91
66835;HTU21D;53743;51.100;5.874;2022-09-16T06:21:02;14.72;83.91
66835;HTU21D;53743;51.100;5.874;2022-09-16T06:22:04;14.73;83.67
66835;HTU21D;53743;51.100;5.874;2022-09-16T06:23:05;14.74;83.38
66835;HTU21D;53743;51.100;5.874;2022-09-16T06:24:06;14.70;83.82
66835;HTU21D;53743;51.100;5.874;2022-09-16T06:25:08;14.72;83.85
66835;HTU21D;53743;51.100;5.874;2022-09-16T06:26:21;14.77;83.77
66835;HTU21D;53743;51.100;5.874;2022-09-16T06:27:23;14.77;84.07
66835;HTU21D;53743;51.100;5.874;2022-09-16T06:28:24;14.80;84.23
66835;HTU21D;53743;51.100;5.874;2022-09-16T06:29:24;14.86;84.14
66835;HTU21D;53743;51.100;5.874;2022-09-16T06:30:25;14.95;83.74
66835;HTU21D;53743;51.100;5.874;2022-09-16T06:31:27;15.04;83.86
66835;HTU21D;53743;51.100;5.874;2022-09-16T06:32:31;15.16;83.65
66835;HTU21D;53743;51.100;5.874;2022-09-16T06:33:36;15.29;82.86
66835;HTU21D;53743;51.100;5.874;2022-09-16T06:34:37;15.34;82.59
66835;HTU21D;53743;51.100;5.874;2022-09-16T06:35:37;15.41;82.45
66835;HTU21D;53743;51.100;5.874;2022-09-16T06:36:38;15.45;82.33
66835;HTU21D;53743;51.100;5.874;2022-09-16T06:37:39;15.55;82.17
66835;HTU21D;53743;51.100;5.874;2022-09-16T06:38:40;15.62;82.04
66835;HTU21D;53743;51.100;5.874;2022-09-16T06:39:41;15.73;82.20
66835;HTU21D;53743;51.100;5.874;2022-09-16T06:40:42;15.85;81.66
66835;HTU21D;53743;51.100;5.874;2022-09-16T06:41:43;15.95;81.64
66835;HTU21D;53743;51.100;5.874;2022-09-16T06:42:44;16.01;81.04
66835;HTU21D;53743;51.100;5.874;2022-09-16T06:43:45;16.08;80.36
66835;HTU21D;53743;51.100;5.874;2022-09-16T06:44:47;16.13;80.85
66835;HTU21D;53743;51.100;5.874;2022-09-16T06:45:47;16.17;80.19
66835;HTU21D;53743;51.100;5.874;2022-09-16T06:46:48;16.18;80.46
66835;HTU21D;53743;51.100;5.874;2022-09-16T06:47:49;16.20;79.95
66835;HTU21D;53743;51.100;5.874;2022-09-16T06:48:52;16.24;79.64
66835;HTU21D;53743;51.100;5.874;2022-09-16T06:49:55;16.20;79.46
66835;HTU21D;53743;51.100;5.874;2022-09-16T06:51:01;16.19;79.49
66835;HTU21D;53743;51.100;5.874;2022-09-16T06:52:03;16.16;79.03
66835;HTU21D;53743;51.100;5.874;2022-09-16T06:53:04;16.17;78.90
66835;HTU21D;53743;51.100;5.874;2022-09-16T06:54:06;16.12;79.00
66835;HTU21D;53743;51.100;5.874;2022-09-16T06:55:08;16.06;79.22
66835;HTU21D;53743;51.100;5.874;2022-09-16T06:56:11;16.07;78.73
66835;HTU21D;53743;51.100;5.874;2022-09-16T06:57:13;16.01;79.30
66835;HTU21D;53743;51.100;5.874;2022-09-16T06:58:13;16.01;79.69
66835;HTU21D;53743;51.100;5.874;2022-09-16T06:59:14;16.03;79.61
66835;HTU21D;53743;51.100;5.874;2022-09-16T07:00:15;16.03;79.72
66835;HTU21D;53743;51.100;5.874;2022-09-16T07:01:19;16.05;79.35
66835;HTU21D;53743;51.100;5.874;2022-09-16T07:02:21;16.03;79.53
66835;HTU21D;53743;51.100;5.874;2022-09-16T07:03:22;16.04;79.95
66835;HTU21D;53743;51.100;5.874;2022-09-16T07:04:23;16.08;79.62
66835;HTU21D;53743;51.100;5.874;2022-09-16T07:05:24;16.11;79.08
66835;HTU21D;53743;51.100;5.874;2022-09-16T07:06:27;16.13;79.54
66835;HTU21D;53743;51.100;5.874;2022-09-16T07:07:29;16.14;79.30
66835;HTU21D;53743;51.100;5.874;2022-09-16T07:08:37;16.11;79.50
66835;HTU21D;53743;51.100;5.874;2022-09-16T07:09:38;16.06;79.93
66835;HTU21D;53743;51.100;5.874;2022-09-16T07:10:39;16.08;80.28
66835;HTU21D;53743;51.100;5.874;2022-09-16T07:11:39;16.11;79.80
66835;HTU21D;53743;51.100;5.874;2022-09-16T07:12:40;16.04;80.08
66835;HTU21D;53743;51.100;5.874;2022-09-16T07:13:42;16.02;80.50
66835;HTU21D;53743;51.100;5.874;2022-09-16T07:14:43;16.04;79.38
66835;HTU21D;53743;51.100;5.874;2022-09-16T07:15:44;16.04;80.02
66835;HTU21D;53743;51.100;5.874;2022-09-16T07:16:45;16.10;80.04
66835;HTU21D;53743;51.100;5.874;2022-09-16T07:17:46;16.18;79.61
66835;HTU21D;53743;51.100;5.874;2022-09-16T07:18:46;16.22;79.38
66835;HTU21D;53743;51.100;5.874;2022-09-16T07:19:47;16.25;79.49
66835;HTU21D;53743;51.100;5.874;2022-09-16T07:20:48;16.31;78.74
66835;HTU21D;53743;51.100;5.874;2022-09-16T07:21:49;16.33;79.07
66835;HTU21D;53743;51.100;5.874;2022-09-16T07:22:49;16.41;78.63
66835;HTU21D;53743;51.100;5.874;2022-09-16T07:23:58;16.40;78.98
66835;HTU21D;53743;51.100;5.874;2022-09-16T07:25:00;16.41;79.03
66835;HTU21D;53743;51.100;5.874;2022-09-16T07:26:19;16.42;79.04
66835;HTU21D;53743;51.100;5.874;2022-09-16T07:27:21;16.41;77.85
66835;HTU21D;53743;51.100;5.874;2022-09-16T07:28:21;16.44;78.18